Latest Weather Observations for Ernabella/Pukatja

IDD60801

Issued at 2:51 pm CST Monday 23 September 2019 (issued every 10 minutes, with the page automatically refreshed every 10 minutes)

About weather observations | Map of weather stations | Latest weather observations for NT | Other Formats
Station Details ID: 016097 Name: PUKATJA Lat: -26.26 Lon: 132.18 Height: 703.2 m
Data from the previous 72 hours. | See also: Recent months at Ernabella/Pukatja
Date/Time
CST
Temp
°C
App
Temp
°C
Dew
Point
°C
Rel
Hum
%
Delta-T
°C
Wind Press
QNH
hPa
Press
MSL
hPa
Rain since
9am
mm
Dir  Spd
km/h
Gust
km/h
Spd
kts
Gust
kts
23/02:30pm 17.5 11.3 -4.4 22 8.9 ENE 19 24 10 13 1029.2 1026.8 0.0
23/02:00pm 17.5 11.4 -3.8 23 8.9 ENE 19 26 10 14 1029.4 1027.0 0.0
23/01:30pm 17.9 11.2 -4.1 22 9.1 ENE 22 30 12 16 1029.6 1027.2 0.0
23/01:00pm 17.5 10.8 -3.8 23 8.9 ENE 22 26 12 14 1029.9 1027.5 0.0
23/12:30pm 17.2 10.9 -4.1 23 8.7 ENE 20 30 11 16 1031.2 1028.8 0.0
23/12:00pm 17.3 10.2 -4.0 23 8.7 NE 24 37 13 20 1031.2 1028.8 0.0
23/11:30am 17.6 10.6 -3.7 23 8.8 ENE 24 35 13 19 1031.1 1028.7 0.0
23/11:00am 17.2 9.4 -3.5 24 8.6 ENE 28 35 15 19 1030.3 1028.0 0.0
23/10:30am 15.6 7.5 -2.8 28 7.6 E 30 35 16 19 1030.3 1028.0 0.0
23/10:00am 14.9 7.6 -2.5 30 7.2 E 26 33 14 18 1031.2 1028.8 0.0
23/09:30am 14.8 6.4 -2.6 30 7.2 ENE 32 41 17 22 1031.1 1028.7 0.0
23/09:00am 14.1 7.2 -2.3 32 6.8 E 24 35 13 19 1030.4 1028.1 0.0
23/08:30am 13.0 5.4 -2.5 34 6.3 ENE 28 33 15 18 1030.3 1028.0 0.0
23/08:00am 12.5 5.6 -2.9 34 6.2 E 24 32 13 17 1030.2 1027.9 0.0
23/07:30am 11.9 5.7 -3.4 34 6.0 ENE 20 30 11 16 1030.3 1028.0 0.0
23/07:00am 11.9 5.2 -4.2 32 6.3 ESE 22 32 12 17 1029.9 1027.5 0.0
23/06:30am 11.5 5.7 -4.6 32 6.1 ESE 17 24 9 13 1029.4 1027.0 0.0
23/06:00am 11.8 6.4 -4.3 32 6.2 ESE 15 26 8 14 1029.1 1026.7 0.0
23/05:30am 11.7 5.9 -4.4 32 6.2 SE 17 24 9 13 1028.4 1026.0 0.0
23/05:00am 11.7 5.9 -4.8 31 6.3 ESE 17 24 9 13 1028.4 1026.0 0.0
23/04:30am 11.8 5.4 -4.8 31 6.3 SE 20 30 11 16 1027.6 1025.2 0.0
23/04:00am 12.1 5.3 -4.9 30 6.5 SE 22 30 12 16 1027.7 1025.3 0.0
23/03:30am 12.5 6.1 -5.0 29 6.7 SE 20 30 11 16 1028.5 1026.1 0.0
23/03:00am 13.2 7.0 -4.9 28 7.0 SE 19 26 10 14 1028.0 1025.6 0.0
23/02:30am 11.1 5.9 -5.8 30 6.2 E 13 17 7 9 1029.2 1026.8 0.0
23/02:00am 11.4 7.0 -6.0 29 6.5 NE 9 11 5 6 1029.4 1027.0 0.0
23/01:30am 13.5 8.4 -5.1 27 7.2 E 13 19 7 10 1029.4 1027.0 0.0
23/01:00am 13.0 7.9 -5.5 27 7.1 ENE 13 17 7 9 1030.1 1027.8 0.0
23/12:30am 13.3 8.9 -5.8 26 7.2 E 9 11 5 6 1029.9 1027.5 0.0
23/12:00am 14.7 8.8 -5.6 24 7.8 SE 17 22 9 12 1030.3 1028.0 0.0
 
Date/Time
CST
Temp
°C
App
Temp
°C
Dew
Point
°C
Rel
Hum
%
Delta-T
°C
Wind Press
QNH
hPa
Press
MSL
hPa
Rain since
9am
mm
Dir  Spd
km/h
Gust
km/h
Spd
kts
Gust
kts
22/11:30pm 14.6 8.7 -5.7 24 7.8 SE 17 24 9 13 1030.1 1027.8 0.0
22/11:00pm 14.3 8.7 -6.0 24 7.8 SE 15 20 8 11 1029.8 1027.4 0.0
22/10:30pm 15.4 9.4 -6.2 22 8.3 SE 17 26 9 14 1029.7 1027.3 0.0
22/10:00pm 15.8 9.3 -5.8 22 8.5 ESE 20 28 11 15 1029.2 1026.8 0.0
22/09:30pm 13.4 9.3 -6.7 24 7.5 ENE 7 9 4 5 1029.4 1027.0 0.0
22/09:00pm 15.4 10.5 -6.8 21 8.4 E 11 15 6 8 1029.2 1026.8 0.0
22/08:30pm 16.8 10.8 -6.3 20 9.0 ESE 17 22 9 12 1028.5 1026.1 0.0
22/08:00pm 17.1 11.1 -6.7 19 9.3 ESE 17 24 9 13 1028.3 1025.9 0.0
22/07:30pm 16.9 11.3 -6.8 19 9.1 ESE 15 22 8 12 1028.1 1025.7 0.0
22/07:00pm 17.6 11.9 -7.0 18 9.6 ESE 15 20 8 11 1027.6 1025.2 0.0
22/06:30pm 18.0 12.7 -7.4 17 9.8 ESE 13 19 7 10 1027.1 1024.7 0.0
22/06:00pm 19.1 13.7 -8.1 15 10.5 ENE 13 17 7 9 1026.9 1024.5 0.0
22/05:30pm 19.6 13.1 -7.7 15 10.6 E 19 26 10 14 1026.5 1024.1 0.0
22/05:00pm 20.0 14.0 -6.5 16 10.7 E 17 28 9 15 1026.4 1024.0 0.0
22/04:30pm 20.5 14.8 -7.0 15 11.0 E 15 24 8 13 1026.3 1023.9 0.0
22/04:00pm 20.3 15.9 -6.3 16 10.8 E 9 19 5 10 1026.2 1023.8 0.0
22/03:30pm 20.4 15.6 -6.2 16 10.8 ESE 11 22 6 12 1026.1 1023.6 0.0
22/03:00pm 20.9 16.2 -5.0 17 10.8 NE 11 26 6 14 1026.3 1023.9 0.0
22/02:30pm 19.7 14.5 -6.0 17 10.4 SSE 13 22 7 12 1026.8 1024.4 0.0
22/02:00pm 19.5 13.6 -5.4 18 10.2 ESE 17 26 9 14 1027.1 1024.7 0.0
22/01:30pm 18.7 12.9 -4.7 20 9.6 ESE 17 33 9 18 1027.3 1024.9 0.0
22/01:00pm 18.7 12.9 -4.7 20 9.7 ESE 17 26 9 14 1028.0 1025.6 0.0
22/12:30pm 17.2 11.9 -3.5 24 8.6 SE 15 28 8 15 1028.3 1025.9 0.0
22/12:00pm 16.7 11.4 -3.4 25 8.3 SE 15 24 8 13 1028.7 1026.4 0.0
22/11:30am 16.1 10.4 -3.9 25 8.1 SE 17 24 9 13 1029.2 1026.8 0.0
22/11:00am 15.9 10.3 -2.6 28 7.8 E 17 24 9 13 1029.5 1027.1 0.0
22/10:30am 15.3 9.8 -2.2 30 7.3 ENE 17 24 9 13 1029.6 1027.2 0.0
22/10:00am 14.5 8.4 -2.0 32 6.9 ENE 20 28 11 15 1029.8 1027.4 0.0
22/09:30am 12.8 6.8 -1.9 36 6.0 E 20 30 11 16 1029.7 1027.3 0.0
22/09:00am 12.5 6.5 -1.8 37 5.9 E 20 30 11 16 1029.6 1027.2 0.0
22/08:30am 11.4 5.0 -1.7 40 5.3 E 22 32 12 17 1029.4 1027.0 0.0
22/08:00am 10.8 5.7 -1.9 41 5.1 ESE 15 20 8 11 1029.1 1026.7 0.0
22/07:30am 8.4 4.4 -2.2 47 4.1 NE 9 13 5 7 1028.7 1026.4 0.0
22/07:00am 4.6 0.8 -3.6 55 3.0 E 7 9 4 5 1028.1 1025.7 0.0
22/06:30am 4.6 0.4 -3.9 54 3.0 E 9 15 5 8 1027.9 1025.5 0.0
22/06:00am 4.6 0.8 -3.6 55 2.9 E 7 9 4 5 1027.4 1025.1 0.0
22/05:30am 6.3 2.9 -2.3 54 3.3 NE 6 9 3 5 1027.2 1024.8 0.0
22/05:00am 7.3 3.3 -2.4 50 3.7 ENE 9 13 5 7 1026.7 1024.3 0.0
22/04:30am 8.0 3.2 -2.6 47 4.1 ESE 13 24 7 13 1026.2 1023.8 0.0
22/04:00am 8.5 3.0 -1.9 48 4.1 SSE 17 24 9 13 1025.7 1023.3 0.0
22/03:30am 7.2 3.7 -2.8 49 3.8 NE 6 9 3 5 1026.1 1023.6 0.0
22/03:00am 8.5 4.1 -2.4 46 4.2 SE 11 17 6 9 1025.8 1023.4 0.0
22/02:30am 8.6 4.6 -2.6 45 4.3 ESE 9 17 5 9 1026.1 1023.6 0.0
22/02:00am 9.3 3.4 -2.3 44 4.6 SE 19 28 10 15 1026.2 1023.8 0.0
22/01:30am 9.4 2.9 -2.8 42 4.7 SE 22 32 12 17 1026.2 1023.8 0.0
22/01:00am 9.9 3.0 -3.0 40 5.0 SE 24 32 13 17 1026.3 1023.9 0.0
22/12:30am 10.0 3.7 -4.4 36 5.4 SE 20 28 11 15 1026.2 1023.8 0.0
22/12:00am 10.8 3.7 -4.8 33 5.9 SE 24 33 13 18 1026.3 1023.9 0.0
 
Date/Time
CST
Temp
°C
App
Temp
°C
Dew
Point
°C
Rel
Hum
%
Delta-T
°C
Wind Press
QNH
hPa
Press
MSL
hPa
Rain since
9am
mm
Dir  Spd
km/h
Gust
km/h
Spd
kts
Gust
kts
21/11:30pm 11.4 5.4 -6.4 28 6.5 SE 17 20 9 11 1026.2 1023.8 0.0
21/11:00pm 11.7 5.3 -6.6 27 6.7 SE 19 24 10 13 1026.1 1023.6 0.0
21/10:30pm 11.8 6.2 -6.6 27 6.7 SE 15 24 8 13 1026.1 1023.6 0.0
21/10:00pm 12.5 7.3 -6.5 26 7.1 SE 13 20 7 11 1026.2 1023.8 0.0
21/09:30pm 12.9 7.7 -6.1 26 7.1 SE 13 20 7 11 1025.8 1023.4 0.0
21/09:00pm 13.2 8.0 -6.4 25 7.3 SE 13 19 7 10 1025.5 1023.1 0.0
21/08:30pm 14.0 8.0 -6.2 24 7.6 SSE 17 20 9 11 1025.1 1022.7 0.0
21/08:00pm 13.9 8.6 -6.9 23 7.8 S 13 17 7 9 1024.6 1022.1 0.0
21/07:30pm 13.6 8.7 -7.1 23 7.7 S 11 13 6 7 1024.3 1021.9 0.0
21/07:00pm 14.2 9.7 -7.2 22 8.0 SSE 9 13 5 7 1023.8 1021.4 0.0
21/06:30pm 15.2 10.7 -6.9 21 8.4 SE 9 13 5 7 1023.5 1021.0 0.0
21/06:00pm 16.3 11.1 -6.7 20 8.8 SSE 13 17 7 9 1023.3 1020.8 0.0
21/05:30pm 16.9 11.6 -6.8 19 9.2 SE 13 20 7 11 1023.1 1020.6 0.0
21/05:00pm 16.7 12.2 -7.0 19 9.1 SE 9 15 5 8 1023.0 1020.5 0.0
21/04:30pm 17.3 12.5 -5.8 20 9.2 S 11 15 6 8 1023.0 1020.5 0.0
21/04:00pm 17.1 12.7 -6.0 20 9.1 NNE 9 15 5 8 1022.7 1020.3 0.0
21/03:30pm 17.1 11.9 -6.0 20 9.1 SE 13 24 7 13 1023.0 1020.5 0.0
21/03:00pm 16.8 13.0 -5.6 21 8.9 SE 6 19 3 10 1023.2 1020.7 0.0
21/02:30pm 15.6 10.9 -4.9 24 8.1 ESE 11 20 6 11 1023.6 1021.1 0.0
21/02:00pm 15.6 10.2 -4.3 25 8.0 SSE 15 26 8 14 1023.8 1021.4 0.0
21/01:30pm 15.5 10.9 -3.9 26 7.9 SE 11 28 6 15 1024.1 1021.7 0.0
21/01:00pm 15.1 10.6 -3.2 28 7.5 S 11 24 6 13 1024.6 1022.1 0.0
21/12:30pm 14.1 8.1 -3.2 30 7.0 SSE 19 30 10 16 1024.8 1022.3 0.0
21/12:00pm 13.3 8.4 -3.4 31 6.7 S 13 24 7 13 1025.2 1022.8 0.0
21/11:30am 13.3 7.7 -3.0 32 6.6 SSW 17 30 9 16 1025.4 1023.0 0.0
21/11:00am 12.8 8.4 -2.3 35 6.2 SSE 11 20 6 11 1025.6 1023.2 0.0
21/10:30am 10.8 5.2 -3.3 37 5.5 S 17 28 9 15 1026.1 1023.6 0.0
21/10:00am 10.8 4.9 -2.2 40 5.2 SSE 19 28 10 15 1026.1 1023.6 0.0
21/09:30am 10.1 4.1 -1.6 44 4.7 SSE 20 26 11 14 1026.2 1023.8 0.0
21/09:00am 8.9 2.9 -1.8 47 4.2 SE 20 28 11 15 1026.1 1023.6 0.2
21/08:30am 8.0 1.6 -1.8 50 3.8 SSE 22 30 12 16 1025.8 1023.4 0.2
21/08:00am 7.2 1.5 -1.0 56 3.3 SE 19 26 10 14 1025.5 1023.1 0.2
21/07:30am 6.5 0.2 -0.9 59 2.9 SE 22 30 12 16 1025.1 1022.7 0.2
21/07:00am 5.7 -0.6 -1.0 62 2.6 SE 22 28 12 15 1024.3 1021.9 0.2
21/06:30am 5.8 -1.3 -0.9 62 2.6 SSE 26 35 14 19 1023.7 1021.3 0.2
21/06:00am 5.9 -1.1 -0.8 62 2.6 SSE 26 37 14 20 1023.2 1020.7 0.2
21/05:30am 6.5 -1.0 -1.2 58 3.0 SSE 28 37 15 20 1022.6 1020.2 0.2
21/05:00am 6.5 -0.3 -1.6 56 3.2 SSE 24 39 13 21 1022.1 1019.6 0.2
21/04:30am 6.8 0.4 -1.8 54 3.3 S 22 33 12 18 1021.8 1019.3 0.2
21/04:00am 7.1 1.1 -1.8 53 3.5 S 20 28 11 15 1021.5 1019.0 0.2
21/03:30am 8.0 0.7 -3.2 45 4.3 S 26 35 14 19 1021.3 1018.9 0.2
21/03:00am 9.1 3.3 -4.4 38 5.0 SSW 17 32 9 17 1021.1 1018.7 0.2
21/02:30am 9.4 3.1 -4.2 38 5.1 SSW 20 35 11 19 1021.1 1018.7 0.2
21/02:00am 9.5 2.9 -3.7 39 5.1 S 22 33 12 18 1021.3 1018.9 0.2
21/01:30am 9.6 2.2 -3.7 39 5.1 SSW 26 39 14 21 1021.6 1019.1 0.2
21/01:00am 9.7 3.1 -3.2 40 5.0 S 22 32 12 17 1021.8 1019.3 0.2
21/12:30am 9.8 3.2 -3.5 39 5.1 S 22 30 12 16 1021.9 1019.4 0.2
21/12:00am 9.6 4.3 -4.0 38 5.2 SSE 15 24 8 13 1022.1 1019.6 0.2
 
Date/Time
CST
Temp
°C
App
Temp
°C
Dew
Point
°C
Rel
Hum
%
Delta-T
°C
Wind Press
QNH
hPa
Press
MSL
hPa
Rain since
9am
mm
Dir  Spd
km/h
Gust
km/h
Spd
kts
Gust
kts
20/11:30pm 10.1 3.5 -3.6 38 5.3 S 22 30 12 16 1021.9 1019.4 0.2
20/11:00pm 10.5 4.2 -3.6 37 5.5 S 20 30 11 16 1021.8 1019.3 0.2
20/10:30pm 10.7 4.6 -2.7 39 5.3 S 20 28 11 15 1022.0 1019.5 0.2
20/10:00pm 11.1 5.2 -2.3 39 5.4 S 19 28 10 15 1021.9 1019.4 0.2
20/09:30pm 11.3 5.4 -0.8 43 5.0 SSW 20 28 11 15 1021.7 1019.2 0.2
20/09:00pm 11.6 5.7 -0.5 43 5.1 S 20 30 11 16 1021.6 1019.1 0.2
20/08:30pm 11.8 5.9 -0.7 42 5.2 SSW 20 32 11 17 1021.3 1018.9 0.2
20/08:00pm 12.0 5.8 -0.5 42 5.3 SW 22 33 12 18 1020.8 1018.3 0.2
20/07:30pm 12.2 5.3 0.0 43 5.2 SSW 26 32 14 17 1020.5 1018.0 0.2
20/07:00pm 12.5 5.2 0.0 42 5.4 SW 28 35 15 19 1020.3 1017.8 0.2
20/06:30pm 12.7 6.3 0.8 44 5.2 SSW 24 35 13 19 1020.1 1017.6 0.2
20/06:00pm 13.2 6.1 1.2 44 5.3 SSW 28 37 15 20 1019.6 1017.1 0.2
20/05:30pm 13.2 6.9 1.5 45 5.2 SSW 24 37 13 20 1019.1 1016.6 0.2
20/05:00pm 12.9 6.9 1.3 45 5.2 SW 22 33 12 18 1018.8 1016.3 0.2
20/04:30pm 12.2 4.0 0.6 45 5.0 SW 33 43 18 23 1018.5 1015.9 0.2
20/04:00pm 13.8 5.9 0.8 41 5.8 SW 32 44 17 24 1017.7 1015.2 0.2
20/03:30pm 14.7 6.3 3.8 48 5.2 SW 37 54 20 29 1017.0 1014.4 0.2
20/03:00pm 14.7 5.6 4.1 49 5.1 SW 41 54 22 29 1016.5 1014.0 0.2

Other formats

Comma delimited format used in spreadsheet applications
http://www.bom.gov.au/fwo/IDD60801/IDD60801.94474.axf

JavaScript Object Notation format (JSON) in row-major order
http://www.bom.gov.au/fwo/IDD60801/IDD60801.94474.json

Data quality

Most of these data are generated automatically and are frequently updated. Quality checks on data are not normally performed. It is possible for incorrect values to appear. Refer to information at About Latest Weather Observations and please check the disclaimer before using these data.